sensor_id;sensor_type;location;lat;lon;timestamp;P1;durP1;ratioP1;P2;durP2;ratioP2
19525;SDS011;9907;42.676;26.348;2022-12-07T00:01:20;13.27;;;10.87;;
19525;SDS011;9907;42.676;26.348;2022-12-07T00:03:47;16.40;;;11.23;;
19525;SDS011;9907;42.676;26.348;2022-12-07T00:06:14;15.53;;;11.40;;
19525;SDS011;9907;42.676;26.348;2022-12-07T00:08:41;13.80;;;10.90;;
19525;SDS011;9907;42.676;26.348;2022-12-07T00:11:09;16.50;;;10.73;;
19525;SDS011;9907;42.676;26.348;2022-12-07T00:13:36;12.20;;;10.60;;
19525;SDS011;9907;42.676;26.348;2022-12-07T00:16:03;15.73;;;11.90;;
19525;SDS011;9907;42.676;26.348;2022-12-07T00:18:37;13.97;;;11.63;;
19525;SDS011;9907;42.676;26.348;2022-12-07T00:21:06;14.10;;;11.93;;
19525;SDS011;9907;42.676;26.348;2022-12-07T00:23:35;16.97;;;12.23;;
19525;SDS011;9907;42.676;26.348;2022-12-07T00:26:07;16.63;;;12.13;;
19525;SDS011;9907;42.676;26.348;2022-12-07T00:28:34;16.70;;;12.23;;
19525;SDS011;9907;42.676;26.348;2022-12-07T00:31:01;14.70;;;12.03;;
19525;SDS011;9907;42.676;26.348;2022-12-07T00:33:35;14.93;;;11.90;;
19525;SDS011;9907;42.676;26.348;2022-12-07T00:36:01;15.00;;;12.10;;
19525;SDS011;9907;42.676;26.348;2022-12-07T00:38:30;16.00;;;12.50;;
19525;SDS011;9907;42.676;26.348;2022-12-07T00:40:57;16.17;;;12.23;;
19525;SDS011;9907;42.676;26.348;2022-12-07T00:43:28;17.20;;;12.67;;
19525;SDS011;9907;42.676;26.348;2022-12-07T00:45:54;15.40;;;12.90;;
19525;SDS011;9907;42.676;26.348;2022-12-07T00:48:20;14.50;;;11.97;;
19525;SDS011;9907;42.676;26.348;2022-12-07T00:50:47;16.57;;;12.20;;
19525;SDS011;9907;42.676;26.348;2022-12-07T00:53:13;15.47;;;12.37;;
19525;SDS011;9907;42.676;26.348;2022-12-07T00:55:39;17.13;;;12.83;;
19525;SDS011;9907;42.676;26.348;2022-12-07T00:58:04;14.73;;;12.10;;
19525;SDS011;9907;42.676;26.348;2022-12-07T01:00:30;15.33;;;12.17;;
19525;SDS011;9907;42.676;26.348;2022-12-07T01:02:56;14.23;;;11.10;;
19525;SDS011;9907;42.676;26.348;2022-12-07T01:05:21;16.53;;;12.70;;
19525;SDS011;9907;42.676;26.348;2022-12-07T01:07:47;14.10;;;11.40;;
19525;SDS011;9907;42.676;26.348;2022-12-07T01:10:13;16.87;;;11.57;;
19525;SDS011;9907;42.676;26.348;2022-12-07T01:12:39;16.57;;;12.70;;
19525;SDS011;9907;42.676;26.348;2022-12-07T01:15:04;14.50;;;11.80;;
19525;SDS011;9907;42.676;26.348;2022-12-07T01:17:30;16.80;;;12.47;;
19525;SDS011;9907;42.676;26.348;2022-12-07T01:19:56;18.13;;;11.87;;
19525;SDS011;9907;42.676;26.348;2022-12-07T01:22:22;15.67;;;12.20;;
19525;SDS011;9907;42.676;26.348;2022-12-07T01:24:47;16.40;;;12.33;;
19525;SDS011;9907;42.676;26.348;2022-12-07T01:27:13;13.87;;;11.70;;
19525;SDS011;9907;42.676;26.348;2022-12-07T01:29:39;14.97;;;12.63;;
19525;SDS011;9907;42.676;26.348;2022-12-07T01:32:04;18.17;;;13.13;;
19525;SDS011;9907;42.676;26.348;2022-12-07T01:34:30;16.17;;;12.43;;
19525;SDS011;9907;42.676;26.348;2022-12-07T01:36:56;15.10;;;12.63;;
19525;SDS011;9907;42.676;26.348;2022-12-07T01:39:22;17.90;;;13.53;;
19525;SDS011;9907;42.676;26.348;2022-12-07T01:41:48;19.87;;;12.83;;
19525;SDS011;9907;42.676;26.348;2022-12-07T01:44:15;16.87;;;13.23;;
19525;SDS011;9907;42.676;26.348;2022-12-07T01:46:41;17.10;;;13.03;;
19525;SDS011;9907;42.676;26.348;2022-12-07T01:49:09;16.13;;;12.53;;
19525;SDS011;9907;42.676;26.348;2022-12-07T01:51:39;16.87;;;13.07;;
19525;SDS011;9907;42.676;26.348;2022-12-07T01:54:07;17.70;;;11.90;;
19525;SDS011;9907;42.676;26.348;2022-12-07T01:56:35;17.83;;;13.13;;
19525;SDS011;9907;42.676;26.348;2022-12-07T01:59:02;18.43;;;12.70;;
19525;SDS011;9907;42.676;26.348;2022-12-07T02:01:27;17.83;;;13.43;;
19525;SDS011;9907;42.676;26.348;2022-12-07T02:03:53;16.30;;;13.23;;
19525;SDS011;9907;42.676;26.348;2022-12-07T02:06:20;21.60;;;14.50;;
19525;SDS011;9907;42.676;26.348;2022-12-07T02:08:49;20.40;;;13.47;;
19525;SDS011;9907;42.676;26.348;2022-12-07T02:11:15;19.73;;;13.70;;
19525;SDS011;9907;42.676;26.348;2022-12-07T02:13:41;21.77;;;15.07;;
19525;SDS011;9907;42.676;26.348;2022-12-07T02:21:38;21.20;;;13.90;;
19525;SDS011;9907;42.676;26.348;2022-12-07T02:30:13;24.33;;;15.13;;
19525;SDS011;9907;42.676;26.348;2022-12-07T02:32:42;21.17;;;14.47;;
19525;SDS011;9907;42.676;26.348;2022-12-07T02:35:27;21.93;;;14.27;;
19525;SDS011;9907;42.676;26.348;2022-12-07T02:37:59;21.47;;;13.93;;
19525;SDS011;9907;42.676;26.348;2022-12-07T02:43:24;23.77;;;14.37;;
19525;SDS011;9907;42.676;26.348;2022-12-07T02:45:53;26.10;;;15.00;;
19525;SDS011;9907;42.676;26.348;2022-12-07T02:48:22;21.43;;;14.63;;
19525;SDS011;9907;42.676;26.348;2022-12-07T02:50:50;24.17;;;14.57;;
19525;SDS011;9907;42.676;26.348;2022-12-07T02:55:57;24.63;;;15.37;;
19525;SDS011;9907;42.676;26.348;2022-12-07T03:04:43;21.77;;;14.10;;
19525;SDS011;9907;42.676;26.348;2022-12-07T03:09:45;21.30;;;13.70;;
19525;SDS011;9907;42.676;26.348;2022-12-07T03:15:22;26.10;;;13.47;;
19525;SDS011;9907;42.676;26.348;2022-12-07T03:17:52;19.67;;;12.70;;
19525;SDS011;9907;42.676;26.348;2022-12-07T03:20:23;20.27;;;12.57;;
19525;SDS011;9907;42.676;26.348;2022-12-07T03:22:50;17.63;;;11.97;;
19525;SDS011;9907;42.676;26.348;2022-12-07T03:25:19;19.33;;;12.07;;
19525;SDS011;9907;42.676;26.348;2022-12-07T03:30:24;19.07;;;13.07;;
19525;SDS011;9907;42.676;26.348;2022-12-07T03:35:34;22.03;;;13.43;;
19525;SDS011;9907;42.676;26.348;2022-12-07T03:38:13;20.03;;;12.40;;
19525;SDS011;9907;42.676;26.348;2022-12-07T03:40:44;16.60;;;11.47;;
19525;SDS011;9907;42.676;26.348;2022-12-07T03:43:17;20.53;;;12.27;;
19525;SDS011;9907;42.676;26.348;2022-12-07T03:48:59;18.17;;;12.30;;
19525;SDS011;9907;42.676;26.348;2022-12-07T03:51:37;18.80;;;11.93;;
19525;SDS011;9907;42.676;26.348;2022-12-07T03:54:22;18.70;;;11.97;;
19525;SDS011;9907;42.676;26.348;2022-12-07T03:56:53;21.57;;;12.27;;
19525;SDS011;9907;42.676;26.348;2022-12-07T03:59:20;17.67;;;12.03;;
19525;SDS011;9907;42.676;26.348;2022-12-07T04:01:54;20.23;;;12.00;;
19525;SDS011;9907;42.676;26.348;2022-12-07T04:04:23;21.63;;;12.97;;
19525;SDS011;9907;42.676;26.348;2022-12-07T04:06:49;20.97;;;12.43;;
19525;SDS011;9907;42.676;26.348;2022-12-07T04:09:15;18.93;;;11.70;;
19525;SDS011;9907;42.676;26.348;2022-12-07T04:11:42;16.63;;;12.07;;
19525;SDS011;9907;42.676;26.348;2022-12-07T04:14:07;19.33;;;12.80;;
19525;SDS011;9907;42.676;26.348;2022-12-07T04:16:48;19.53;;;11.97;;
19525;SDS011;9907;42.676;26.348;2022-12-07T04:19:16;16.87;;;11.57;;
19525;SDS011;9907;42.676;26.348;2022-12-07T04:21:43;16.03;;;11.47;;
19525;SDS011;9907;42.676;26.348;2022-12-07T04:24:08;17.83;;;11.23;;
19525;SDS011;9907;42.676;26.348;2022-12-07T04:26:34;17.87;;;11.43;;
19525;SDS011;9907;42.676;26.348;2022-12-07T04:28:59;22.20;;;11.40;;
19525;SDS011;9907;42.676;26.348;2022-12-07T04:31:25;19.57;;;11.13;;
19525;SDS011;9907;42.676;26.348;2022-12-07T04:33:50;16.00;;;11.13;;
19525;SDS011;9907;42.676;26.348;2022-12-07T04:36:16;17.77;;;11.07;;
19525;SDS011;9907;42.676;26.348;2022-12-07T04:38:41;16.53;;;11.53;;
19525;SDS011;9907;42.676;26.348;2022-12-07T04:41:07;17.53;;;11.17;;
19525;SDS011;9907;42.676;26.348;2022-12-07T04:43:34;18.20;;;11.73;;
19525;SDS011;9907;42.676;26.348;2022-12-07T04:46:00;18.73;;;12.17;;
19525;SDS011;9907;42.676;26.348;2022-12-07T04:48:26;18.73;;;12.80;;
19525;SDS011;9907;42.676;26.348;2022-12-07T04:50:51;19.27;;;12.47;;
19525;SDS011;9907;42.676;26.348;2022-12-07T04:53:17;17.20;;;12.53;;
19525;SDS011;9907;42.676;26.348;2022-12-07T04:55:43;17.80;;;11.73;;
19525;SDS011;9907;42.676;26.348;2022-12-07T04:58:10;21.23;;;12.67;;
19525;SDS011;9907;42.676;26.348;2022-12-07T05:00:35;18.03;;;13.03;;
19525;SDS011;9907;42.676;26.348;2022-12-07T05:03:01;18.67;;;13.17;;
19525;SDS011;9907;42.676;26.348;2022-12-07T05:05:26;18.63;;;13.70;;
19525;SDS011;9907;42.676;26.348;2022-12-07T05:07:52;21.77;;;14.60;;
19525;SDS011;9907;42.676;26.348;2022-12-07T05:10:17;20.73;;;15.93;;
19525;SDS011;9907;42.676;26.348;2022-12-07T05:12:43;23.20;;;15.77;;
19525;SDS011;9907;42.676;26.348;2022-12-07T05:15:08;21.73;;;15.70;;
19525;SDS011;9907;42.676;26.348;2022-12-07T05:17:34;20.67;;;14.93;;
19525;SDS011;9907;42.676;26.348;2022-12-07T05:19:59;19.43;;;14.10;;
19525;SDS011;9907;42.676;26.348;2022-12-07T05:22:25;24.17;;;14.87;;
19525;SDS011;9907;42.676;26.348;2022-12-07T05:24:53;17.97;;;13.20;;
19525;SDS011;9907;42.676;26.348;2022-12-07T05:27:19;19.40;;;13.40;;
19525;SDS011;9907;42.676;26.348;2022-12-07T05:29:47;20.97;;;13.43;;
19525;SDS011;9907;42.676;26.348;2022-12-07T05:32:14;20.90;;;13.40;;
19525;SDS011;9907;42.676;26.348;2022-12-07T05:34:39;22.30;;;13.90;;
19525;SDS011;9907;42.676;26.348;2022-12-07T05:37:05;28.50;;;15.57;;
19525;SDS011;9907;42.676;26.348;2022-12-07T05:39:30;20.53;;;14.03;;
19525;SDS011;9907;42.676;26.348;2022-12-07T05:41:56;21.03;;;15.60;;
19525;SDS011;9907;42.676;26.348;2022-12-07T05:44:40;19.37;;;14.03;;
19525;SDS011;9907;42.676;26.348;2022-12-07T05:47:07;24.07;;;14.67;;
19525;SDS011;9907;42.676;26.348;2022-12-07T05:49:32;20.10;;;15.67;;
19525;SDS011;9907;42.676;26.348;2022-12-07T05:51:58;22.20;;;15.60;;
19525;SDS011;9907;42.676;26.348;2022-12-07T05:54:24;23.17;;;16.23;;
19525;SDS011;9907;42.676;26.348;2022-12-07T05:56:49;22.90;;;15.83;;
19525;SDS011;9907;42.676;26.348;2022-12-07T05:59:15;23.73;;;16.90;;
19525;SDS011;9907;42.676;26.348;2022-12-07T06:02:05;21.50;;;15.33;;
19525;SDS011;9907;42.676;26.348;2022-12-07T06:04:36;27.57;;;19.03;;
19525;SDS011;9907;42.676;26.348;2022-12-07T06:07:03;26.53;;;18.97;;
19525;SDS011;9907;42.676;26.348;2022-12-07T06:09:30;34.00;;;20.00;;
19525;SDS011;9907;42.676;26.348;2022-12-07T06:11:56;27.93;;;17.87;;
19525;SDS011;9907;42.676;26.348;2022-12-07T06:14:41;30.23;;;18.93;;
19525;SDS011;9907;42.676;26.348;2022-12-07T06:17:07;24.33;;;18.17;;
19525;SDS011;9907;42.676;26.348;2022-12-07T06:19:32;22.43;;;17.07;;
19525;SDS011;9907;42.676;26.348;2022-12-07T06:21:58;26.60;;;17.47;;
19525;SDS011;9907;42.676;26.348;2022-12-07T06:24:24;23.93;;;16.40;;
19525;SDS011;9907;42.676;26.348;2022-12-07T06:26:50;25.00;;;17.50;;
19525;SDS011;9907;42.676;26.348;2022-12-07T06:29:16;22.50;;;15.93;;
19525;SDS011;9907;42.676;26.348;2022-12-07T06:31:42;20.13;;;15.70;;
19525;SDS011;9907;42.676;26.348;2022-12-07T06:34:11;24.63;;;16.67;;
19525;SDS011;9907;42.676;26.348;2022-12-07T06:36:39;26.27;;;17.33;;
19525;SDS011;9907;42.676;26.348;2022-12-07T06:39:05;25.40;;;15.43;;
19525;SDS011;9907;42.676;26.348;2022-12-07T06:41:31;23.37;;;15.93;;
19525;SDS011;9907;42.676;26.348;2022-12-07T06:43:57;19.17;;;14.30;;
19525;SDS011;9907;42.676;26.348;2022-12-07T06:46:22;19.97;;;14.70;;
19525;SDS011;9907;42.676;26.348;2022-12-07T06:48:49;23.37;;;16.63;;
19525;SDS011;9907;42.676;26.348;2022-12-07T06:51:15;23.43;;;15.43;;
19525;SDS011;9907;42.676;26.348;2022-12-07T06:53:40;26.33;;;16.83;;
19525;SDS011;9907;42.676;26.348;2022-12-07T06:56:06;25.70;;;16.53;;
19525;SDS011;9907;42.676;26.348;2022-12-07T06:58:32;26.43;;;16.83;;
19525;SDS011;9907;42.676;26.348;2022-12-07T07:00:58;32.53;;;21.50;;
19525;SDS011;9907;42.676;26.348;2022-12-07T07:03:23;31.27;;;19.77;;
19525;SDS011;9907;42.676;26.348;2022-12-07T07:05:49;29.37;;;19.97;;
19525;SDS011;9907;42.676;26.348;2022-12-07T07:08:14;26.73;;;20.37;;
19525;SDS011;9907;42.676;26.348;2022-12-07T07:10:40;28.23;;;21.10;;
19525;SDS011;9907;42.676;26.348;2022-12-07T07:13:06;27.70;;;19.63;;
19525;SDS011;9907;42.676;26.348;2022-12-07T07:15:32;28.27;;;20.20;;
19525;SDS011;9907;42.676;26.348;2022-12-07T07:17:58;32.87;;;20.97;;
19525;SDS011;9907;42.676;26.348;2022-12-07T07:20:24;26.47;;;19.73;;
19525;SDS011;9907;42.676;26.348;2022-12-07T07:22:49;28.57;;;18.97;;
19525;SDS011;9907;42.676;26.348;2022-12-07T07:25:15;28.60;;;18.00;;
19525;SDS011;9907;42.676;26.348;2022-12-07T07:27:41;28.93;;;18.90;;
19525;SDS011;9907;42.676;26.348;2022-12-07T07:30:07;24.73;;;18.03;;
19525;SDS011;9907;42.676;26.348;2022-12-07T07:32:33;27.63;;;19.03;;
19525;SDS011;9907;42.676;26.348;2022-12-07T07:34:59;25.10;;;18.07;;
19525;SDS011;9907;42.676;26.348;2022-12-07T07:37:24;27.37;;;18.83;;
19525;SDS011;9907;42.676;26.348;2022-12-07T07:39:50;26.77;;;17.07;;
19525;SDS011;9907;42.676;26.348;2022-12-07T07:42:16;27.20;;;17.77;;
19525;SDS011;9907;42.676;26.348;2022-12-07T07:44:41;29.43;;;19.73;;
19525;SDS011;9907;42.676;26.348;2022-12-07T07:47:06;31.40;;;22.00;;
19525;SDS011;9907;42.676;26.348;2022-12-07T07:49:32;27.40;;;20.23;;
19525;SDS011;9907;42.676;26.348;2022-12-07T07:51:57;28.27;;;21.50;;
19525;SDS011;9907;42.676;26.348;2022-12-07T07:54:23;26.67;;;18.40;;
19525;SDS011;9907;42.676;26.348;2022-12-07T07:56:48;28.43;;;20.83;;
19525;SDS011;9907;42.676;26.348;2022-12-07T07:59:14;25.03;;;17.93;;
19525;SDS011;9907;42.676;26.348;2022-12-07T08:01:40;28.37;;;18.50;;
19525;SDS011;9907;42.676;26.348;2022-12-07T08:04:05;38.87;;;20.90;;
19525;SDS011;9907;42.676;26.348;2022-12-07T08:06:31;25.27;;;18.37;;
19525;SDS011;9907;42.676;26.348;2022-12-07T08:08:56;26.07;;;18.53;;
19525;SDS011;9907;42.676;26.348;2022-12-07T08:11:23;26.33;;;19.30;;
19525;SDS011;9907;42.676;26.348;2022-12-07T08:13:48;28.47;;;19.13;;
19525;SDS011;9907;42.676;26.348;2022-12-07T08:16:14;29.43;;;19.97;;
19525;SDS011;9907;42.676;26.348;2022-12-07T08:18:40;24.93;;;18.27;;
19525;SDS011;9907;42.676;26.348;2022-12-07T08:21:07;30.80;;;19.67;;
19525;SDS011;9907;42.676;26.348;2022-12-07T08:23:35;31.07;;;20.07;;
19525;SDS011;9907;42.676;26.348;2022-12-07T08:26:01;29.80;;;20.10;;
19525;SDS011;9907;42.676;26.348;2022-12-07T08:28:27;31.37;;;20.50;;
19525;SDS011;9907;42.676;26.348;2022-12-07T08:31:00;38.33;;;25.73;;
19525;SDS011;9907;42.676;26.348;2022-12-07T08:33:30;45.27;;;29.50;;
19525;SDS011;9907;42.676;26.348;2022-12-07T08:36:03;56.90;;;36.50;;
19525;SDS011;9907;42.676;26.348;2022-12-07T08:38:31;56.37;;;38.60;;
19525;SDS011;9907;42.676;26.348;2022-12-07T08:40:57;53.07;;;37.20;;
19525;SDS011;9907;42.676;26.348;2022-12-07T08:43:24;43.77;;;30.27;;
19525;SDS011;9907;42.676;26.348;2022-12-07T08:45:52;40.00;;;26.13;;
19525;SDS011;9907;42.676;26.348;2022-12-07T08:48:25;39.80;;;26.80;;
19525;SDS011;9907;42.676;26.348;2022-12-07T08:50:51;42.17;;;27.37;;
19525;SDS011;9907;42.676;26.348;2022-12-07T08:53:17;38.63;;;24.50;;
19525;SDS011;9907;42.676;26.348;2022-12-07T08:55:43;43.03;;;26.40;;
19525;SDS011;9907;42.676;26.348;2022-12-07T08:58:10;36.50;;;25.23;;
19525;SDS011;9907;42.676;26.348;2022-12-07T09:00:36;38.70;;;24.30;;
19525;SDS011;9907;42.676;26.348;2022-12-07T09:03:01;32.97;;;22.17;;
19525;SDS011;9907;42.676;26.348;2022-12-07T09:05:27;27.80;;;20.00;;
19525;SDS011;9907;42.676;26.348;2022-12-07T09:07:54;29.67;;;17.90;;
19525;SDS011;9907;42.676;26.348;2022-12-07T09:10:24;25.47;;;17.97;;
19525;SDS011;9907;42.676;26.348;2022-12-07T09:12:49;25.07;;;16.37;;
19525;SDS011;9907;42.676;26.348;2022-12-07T09:15:15;22.40;;;16.30;;
19525;SDS011;9907;42.676;26.348;2022-12-07T09:17:40;26.80;;;17.17;;
19525;SDS011;9907;42.676;26.348;2022-12-07T09:20:06;27.70;;;15.87;;
19525;SDS011;9907;42.676;26.348;2022-12-07T09:22:32;20.57;;;14.57;;
19525;SDS011;9907;42.676;26.348;2022-12-07T09:24:58;22.87;;;14.67;;
19525;SDS011;9907;42.676;26.348;2022-12-07T09:27:24;27.23;;;17.07;;
19525;SDS011;9907;42.676;26.348;2022-12-07T09:29:50;21.30;;;15.87;;
19525;SDS011;9907;42.676;26.348;2022-12-07T09:32:15;22.27;;;14.93;;
19525;SDS011;9907;42.676;26.348;2022-12-07T09:34:41;20.47;;;13.47;;
19525;SDS011;9907;42.676;26.348;2022-12-07T09:37:06;23.50;;;15.20;;
19525;SDS011;9907;42.676;26.348;2022-12-07T09:39:32;28.67;;;17.87;;
19525;SDS011;9907;42.676;26.348;2022-12-07T09:41:57;25.30;;;17.10;;
19525;SDS011;9907;42.676;26.348;2022-12-07T09:44:24;23.37;;;16.70;;
19525;SDS011;9907;42.676;26.348;2022-12-07T09:46:51;18.40;;;13.63;;
19525;SDS011;9907;42.676;26.348;2022-12-07T09:49:19;14.07;;;10.90;;
19525;SDS011;9907;42.676;26.348;2022-12-07T09:51:46;16.53;;;10.83;;
19525;SDS011;9907;42.676;26.348;2022-12-07T09:54:12;17.50;;;11.03;;
19525;SDS011;9907;42.676;26.348;2022-12-07T09:56:39;15.13;;;11.00;;
19525;SDS011;9907;42.676;26.348;2022-12-07T09:59:05;18.07;;;11.57;;
19525;SDS011;9907;42.676;26.348;2022-12-07T10:01:31;17.80;;;12.33;;
19525;SDS011;9907;42.676;26.348;2022-12-07T10:04:00;20.57;;;13.87;;
19525;SDS011;9907;42.676;26.348;2022-12-07T10:06:34;21.27;;;13.43;;
19525;SDS011;9907;42.676;26.348;2022-12-07T10:08:59;22.37;;;14.03;;
19525;SDS011;9907;42.676;26.348;2022-12-07T10:11:25;21.37;;;14.30;;
19525;SDS011;9907;42.676;26.348;2022-12-07T10:13:51;22.43;;;14.47;;
19525;SDS011;9907;42.676;26.348;2022-12-07T10:18:53;22.27;;;14.10;;
19525;SDS011;9907;42.676;26.348;2022-12-07T10:21:23;21.23;;;13.67;;
19525;SDS011;9907;42.676;26.348;2022-12-07T10:29:15;19.03;;;13.33;;
19525;SDS011;9907;42.676;26.348;2022-12-07T10:31:45;23.27;;;14.07;;
19525;SDS011;9907;42.676;26.348;2022-12-07T10:34:28;21.97;;;13.97;;
19525;SDS011;9907;42.676;26.348;2022-12-07T10:39:43;20.67;;;13.00;;
19525;SDS011;9907;42.676;26.348;2022-12-07T10:42:15;19.97;;;12.33;;
19525;SDS011;9907;42.676;26.348;2022-12-07T10:45:14;19.07;;;13.13;;
19525;SDS011;9907;42.676;26.348;2022-12-07T10:53:21;20.10;;;12.43;;
19525;SDS011;9907;42.676;26.348;2022-12-07T10:56:12;16.33;;;12.73;;
19525;SDS011;9907;42.676;26.348;2022-12-07T10:58:59;23.13;;;14.50;;
19525;SDS011;9907;42.676;26.348;2022-12-07T11:15:22;21.80;;;12.23;;
19525;SDS011;9907;42.676;26.348;2022-12-07T11:17:56;18.30;;;12.03;;
19525;SDS011;9907;42.676;26.348;2022-12-07T11:26:25;20.13;;;12.27;;
19525;SDS011;9907;42.676;26.348;2022-12-07T11:34:19;19.27;;;13.40;;
19525;SDS011;9907;42.676;26.348;2022-12-07T11:36:57;22.60;;;14.37;;
19525;SDS011;9907;42.676;26.348;2022-12-07T11:39:33;23.90;;;15.03;;
19525;SDS011;9907;42.676;26.348;2022-12-07T11:45:14;28.33;;;16.37;;
19525;SDS011;9907;42.676;26.348;2022-12-07T11:47:48;25.13;;;17.17;;
19525;SDS011;9907;42.676;26.348;2022-12-07T11:50:34;23.73;;;16.57;;
19525;SDS011;9907;42.676;26.348;2022-12-07T11:58:35;26.57;;;16.07;;
19525;SDS011;9907;42.676;26.348;2022-12-07T12:01:14;27.27;;;16.23;;
19525;SDS011;9907;42.676;26.348;2022-12-07T12:06:44;24.73;;;14.43;;
19525;SDS011;9907;42.676;26.348;2022-12-07T12:09:26;30.73;;;19.27;;
19525;SDS011;9907;42.676;26.348;2022-12-07T12:20:37;16.70;;;12.83;;
19525;SDS011;9907;42.676;26.348;2022-12-07T12:23:20;15.17;;;11.67;;
19525;SDS011;9907;42.676;26.348;2022-12-07T12:25:50;16.47;;;11.83;;
19525;SDS011;9907;42.676;26.348;2022-12-07T12:33:49;17.27;;;11.50;;
19525;SDS011;9907;42.676;26.348;2022-12-07T12:36:24;20.30;;;12.97;;
19525;SDS011;9907;42.676;26.348;2022-12-07T12:41:55;16.37;;;11.17;;
19525;SDS011;9907;42.676;26.348;2022-12-07T12:49:40;15.73;;;9.97;;
19525;SDS011;9907;42.676;26.348;2022-12-07T12:55:17;15.27;;;9.23;;
19525;SDS011;9907;42.676;26.348;2022-12-07T12:57:47;15.60;;;10.03;;
19525;SDS011;9907;42.676;26.348;2022-12-07T13:00:32;13.70;;;9.23;;
19525;SDS011;9907;42.676;26.348;2022-12-07T13:02:58;12.83;;;9.70;;
19525;SDS011;9907;42.676;26.348;2022-12-07T13:05:25;14.67;;;9.57;;
19525;SDS011;9907;42.676;26.348;2022-12-07T13:07:56;16.53;;;10.33;;
19525;SDS011;9907;42.676;26.348;2022-12-07T13:15:54;15.67;;;11.97;;
19525;SDS011;9907;42.676;26.348;2022-12-07T13:21:01;18.07;;;10.33;;
19525;SDS011;9907;42.676;26.348;2022-12-07T13:28:40;17.23;;;10.23;;
19525;SDS011;9907;42.676;26.348;2022-12-07T13:33:49;16.13;;;11.00;;
19525;SDS011;9907;42.676;26.348;2022-12-07T13:36:19;21.47;;;11.17;;
19525;SDS011;9907;42.676;26.348;2022-12-07T13:38:56;15.73;;;11.03;;
19525;SDS011;9907;42.676;26.348;2022-12-07T13:41:28;16.10;;;11.00;;
19525;SDS011;9907;42.676;26.348;2022-12-07T13:46:41;18.17;;;12.30;;
19525;SDS011;9907;42.676;26.348;2022-12-07T13:49:22;16.00;;;11.60;;
19525;SDS011;9907;42.676;26.348;2022-12-07T13:51:47;16.73;;;11.57;;
19525;SDS011;9907;42.676;26.348;2022-12-07T13:54:14;14.93;;;11.17;;
19525;SDS011;9907;42.676;26.348;2022-12-07T13:56:40;15.47;;;10.57;;
19525;SDS011;9907;42.676;26.348;2022-12-07T13:59:14;14.67;;;10.10;;
19525;SDS011;9907;42.676;26.348;2022-12-07T14:01:48;14.23;;;10.97;;
19525;SDS011;9907;42.676;26.348;2022-12-07T14:07:00;21.73;;;12.70;;
19525;SDS011;9907;42.676;26.348;2022-12-07T14:09:52;21.47;;;12.87;;
19525;SDS011;9907;42.676;26.348;2022-12-07T14:12:19;22.87;;;13.33;;
19525;SDS011;9907;42.676;26.348;2022-12-07T14:14:47;17.37;;;12.50;;
19525;SDS011;9907;42.676;26.348;2022-12-07T14:17:17;18.47;;;13.50;;
19525;SDS011;9907;42.676;26.348;2022-12-07T14:22:35;18.50;;;14.07;;
19525;SDS011;9907;42.676;26.348;2022-12-07T14:28:32;21.43;;;14.33;;
19525;SDS011;9907;42.676;26.348;2022-12-07T14:30:58;20.23;;;13.47;;
19525;SDS011;9907;42.676;26.348;2022-12-07T14:33:24;20.77;;;14.90;;
19525;SDS011;9907;42.676;26.348;2022-12-07T14:35:50;18.50;;;12.93;;
19525;SDS011;9907;42.676;26.348;2022-12-07T14:38:20;17.93;;;12.97;;
19525;SDS011;9907;42.676;26.348;2022-12-07T14:40:46;15.90;;;12.23;;
19525;SDS011;9907;42.676;26.348;2022-12-07T14:43:13;16.47;;;12.17;;
19525;SDS011;9907;42.676;26.348;2022-12-07T14:45:41;19.70;;;12.40;;
19525;SDS011;9907;42.676;26.348;2022-12-07T14:48:10;19.37;;;13.40;;
19525;SDS011;9907;42.676;26.348;2022-12-07T14:50:38;19.33;;;12.73;;
19525;SDS011;9907;42.676;26.348;2022-12-07T14:53:12;18.13;;;12.30;;
19525;SDS011;9907;42.676;26.348;2022-12-07T14:55:39;22.70;;;15.67;;
19525;SDS011;9907;42.676;26.348;2022-12-07T14:58:05;19.83;;;15.83;;
19525;SDS011;9907;42.676;26.348;2022-12-07T15:00:30;17.67;;;13.10;;
19525;SDS011;9907;42.676;26.348;2022-12-07T15:02:56;19.33;;;12.47;;
19525;SDS011;9907;42.676;26.348;2022-12-07T15:05:22;18.20;;;12.53;;
19525;SDS011;9907;42.676;26.348;2022-12-07T15:07:48;17.43;;;14.10;;
19525;SDS011;9907;42.676;26.348;2022-12-07T15:10:18;20.63;;;15.03;;
19525;SDS011;9907;42.676;26.348;2022-12-07T15:12:49;18.60;;;13.97;;
19525;SDS011;9907;42.676;26.348;2022-12-07T15:15:15;17.07;;;13.30;;
19525;SDS011;9907;42.676;26.348;2022-12-07T15:17:42;17.40;;;13.37;;
19525;SDS011;9907;42.676;26.348;2022-12-07T15:20:11;22.33;;;14.03;;
19525;SDS011;9907;42.676;26.348;2022-12-07T15:22:38;17.87;;;14.60;;
19525;SDS011;9907;42.676;26.348;2022-12-07T15:25:04;21.53;;;14.40;;
19525;SDS011;9907;42.676;26.348;2022-12-07T15:27:31;19.33;;;15.03;;
19525;SDS011;9907;42.676;26.348;2022-12-07T15:29:56;20.13;;;14.63;;
19525;SDS011;9907;42.676;26.348;2022-12-07T15:32:22;22.17;;;14.93;;
19525;SDS011;9907;42.676;26.348;2022-12-07T15:34:48;20.43;;;14.63;;
19525;SDS011;9907;42.676;26.348;2022-12-07T15:37:14;20.60;;;15.10;;
19525;SDS011;9907;42.676;26.348;2022-12-07T15:39:40;23.77;;;16.90;;
19525;SDS011;9907;42.676;26.348;2022-12-07T15:42:05;19.77;;;15.03;;
19525;SDS011;9907;42.676;26.348;2022-12-07T15:44:31;19.73;;;15.87;;
19525;SDS011;9907;42.676;26.348;2022-12-07T15:47:15;23.77;;;16.23;;
19525;SDS011;9907;42.676;26.348;2022-12-07T15:49:40;20.50;;;16.20;;
19525;SDS011;9907;42.676;26.348;2022-12-07T15:52:06;26.40;;;17.33;;
19525;SDS011;9907;42.676;26.348;2022-12-07T15:54:31;27.57;;;20.87;;
19525;SDS011;9907;42.676;26.348;2022-12-07T15:56:57;24.33;;;18.23;;
19525;SDS011;9907;42.676;26.348;2022-12-07T15:59:23;25.50;;;17.37;;
19525;SDS011;9907;42.676;26.348;2022-12-07T16:01:50;33.57;;;22.67;;
19525;SDS011;9907;42.676;26.348;2022-12-07T16:04:15;46.80;;;29.90;;
19525;SDS011;9907;42.676;26.348;2022-12-07T16:06:41;47.40;;;30.70;;
19525;SDS011;9907;42.676;26.348;2022-12-07T16:09:06;32.87;;;24.93;;
19525;SDS011;9907;42.676;26.348;2022-12-07T16:11:32;31.53;;;24.73;;
19525;SDS011;9907;42.676;26.348;2022-12-07T16:13:57;37.40;;;26.33;;
19525;SDS011;9907;42.676;26.348;2022-12-07T16:16:23;36.37;;;27.90;;
19525;SDS011;9907;42.676;26.348;2022-12-07T16:18:49;41.47;;;27.47;;
19525;SDS011;9907;42.676;26.348;2022-12-07T16:21:16;42.47;;;30.10;;
19525;SDS011;9907;42.676;26.348;2022-12-07T16:23:42;43.50;;;31.27;;
19525;SDS011;9907;42.676;26.348;2022-12-07T16:26:13;46.07;;;35.47;;
19525;SDS011;9907;42.676;26.348;2022-12-07T16:28:40;50.57;;;37.73;;
19525;SDS011;9907;42.676;26.348;2022-12-07T16:31:13;49.00;;;37.10;;
19525;SDS011;9907;42.676;26.348;2022-12-07T16:33:41;55.70;;;40.17;;
19525;SDS011;9907;42.676;26.348;2022-12-07T16:36:08;55.73;;;41.50;;
19525;SDS011;9907;42.676;26.348;2022-12-07T16:38:36;59.20;;;44.47;;
19525;SDS011;9907;42.676;26.348;2022-12-07T16:41:03;65.10;;;47.23;;
19525;SDS011;9907;42.676;26.348;2022-12-07T16:43:29;68.10;;;46.67;;
19525;SDS011;9907;42.676;26.348;2022-12-07T16:45:55;66.97;;;49.37;;
19525;SDS011;9907;42.676;26.348;2022-12-07T16:48:20;67.73;;;49.97;;
19525;SDS011;9907;42.676;26.348;2022-12-07T16:50:46;75.53;;;50.90;;